createdAt,value
2022-09-21T00:00:05.486Z,91.04
2022-09-21T00:01:26.478Z,90.54
2022-09-21T00:02:29.471Z,90.63
2022-09-21T00:03:35.575Z,90.67
2022-09-21T00:04:38.436Z,91.32
2022-09-21T00:05:41.580Z,91.73
2022-09-21T00:06:44.573Z,91.79
2022-09-21T00:07:47.488Z,92.60
2022-09-21T00:08:50.448Z,92.78
2022-09-21T00:09:53.276Z,92.63
2022-09-21T00:10:56.083Z,92.44
2022-09-21T00:11:58.905Z,93.36
2022-09-21T00:13:04.905Z,92.30
2022-09-21T00:14:11.862Z,92.32
2022-09-21T00:15:20.712Z,92.73
2022-09-21T00:16:24.499Z,93.01
2022-09-21T00:17:27.691Z,92.84
2022-09-21T00:18:31.144Z,93.03
2022-09-21T00:19:39.375Z,92.74
2022-09-21T00:20:43.886Z,93.21
2022-09-21T00:21:46.693Z,93.28
2022-09-21T00:22:49.566Z,92.60
2022-09-21T00:23:52.457Z,92.27
2022-09-21T00:24:56.408Z,92.16
2022-09-21T00:26:26.833Z,92.58
2022-09-21T00:27:31.143Z,92.70
2022-09-21T00:28:34.699Z,92.18
2022-09-21T00:29:37.585Z,91.99
2022-09-21T00:30:40.599Z,92.95
2022-09-21T00:31:43.641Z,91.96
2022-09-21T00:32:46.567Z,92.28
2022-09-21T00:33:51.640Z,92.45
2022-09-21T00:34:54.478Z,92.35
2022-09-21T00:36:06.124Z,92.31
2022-09-21T00:37:09.604Z,92.23
2022-09-21T00:38:12.397Z,91.75
2022-09-21T00:39:15.318Z,92.80
2022-09-21T00:40:18.762Z,92.52
2022-09-21T00:41:21.758Z,92.54
2022-09-21T00:42:28.903Z,92.34
2022-09-21T00:43:36.078Z,92.16
2022-09-21T00:44:39.075Z,92.42
2022-09-21T00:45:44.130Z,92.56
2022-09-21T00:46:50.137Z,92.33
2022-09-21T00:47:53.347Z,92.44
2022-09-21T00:48:57.734Z,92.20
2022-09-21T00:50:06.817Z,92.51
2022-09-21T00:51:09.797Z,92.84
2022-09-21T00:52:15.134Z,92.00
2022-09-21T00:53:18.009Z,91.92
2022-09-21T00:54:27.295Z,91.45
2022-09-21T00:55:38.995Z,92.05
2022-09-21T00:56:44.968Z,92.64
2022-09-21T00:57:52.743Z,92.60
2022-09-21T00:58:56.147Z,93.42
2022-09-21T01:00:03.253Z,92.81
2022-09-21T01:01:06.967Z,92.86
2022-09-21T01:02:09.939Z,93.51
2022-09-21T01:03:13.553Z,93.95
2022-09-21T01:04:19.138Z,93.30
2022-09-21T01:05:22.397Z,92.89
2022-09-21T01:06:26.974Z,93.21
2022-09-21T01:07:33.577Z,93.14
2022-09-21T01:08:38.165Z,93.42
2022-09-21T01:09:43.066Z,93.75
2022-09-21T01:11:17.913Z,93.31
2022-09-21T01:12:30.652Z,93.16
2022-09-21T01:13:58.233Z,93.36
2022-09-21T01:15:14.705Z,93.19
2022-09-21T01:16:34.135Z,92.90
2022-09-21T01:17:52.813Z,91.88
2022-09-21T01:19:18.993Z,92.59
2022-09-21T01:20:55.341Z,92.65
2022-09-21T01:22:16.660Z,92.73
2022-09-21T01:23:26.926Z,92.88
2022-09-21T01:25:01.600Z,93.04
2022-09-21T01:26:26.863Z,93.49
2022-09-21T01:27:52.768Z,93.65
2022-09-21T01:29:34.221Z,92.73
2022-09-21T01:30:45.675Z,91.79
2022-09-21T01:32:11.599Z,91.52
2022-09-21T01:33:23.507Z,91.58
2022-09-21T01:34:33.977Z,92.23
2022-09-21T01:35:44.501Z,91.65
2022-09-21T01:36:49.891Z,91.21
2022-09-21T01:38:01.247Z,91.79
2022-09-21T01:39:10.041Z,91.53
2022-09-21T01:40:24.046Z,91.79
2022-09-21T01:41:30.847Z,92.07
2022-09-21T01:42:35.585Z,91.39
2022-09-21T01:43:43.802Z,91.19
2022-09-21T01:44:49.294Z,91.31
2022-09-21T01:45:56.702Z,91.37
2022-09-21T01:47:03.048Z,91.81
2022-09-21T01:48:06.264Z,92.83
2022-09-21T01:49:13.619Z,93.48
2022-09-21T01:50:18.585Z,93.82
2022-09-21T01:51:25.504Z,94.51
2022-09-21T01:52:56.686Z,95.00
2022-09-21T01:54:03.382Z,95.64
2022-09-21T01:55:28.416Z,96.05
2022-09-21T01:56:36.928Z,96.80
2022-09-21T01:57:55.136Z,97.83
2022-09-21T01:59:16.427Z,98.45
2022-09-21T02:00:19.310Z,98.67
2022-09-21T02:01:25.925Z,98.53
2022-09-21T02:02:42.993Z,98.68
2022-09-21T02:03:51.168Z,99.13
2022-09-21T02:04:54.133Z,99.36
2022-09-21T02:05:58.771Z,99.07
2022-09-21T02:07:02.732Z,99.12
2022-09-21T02:08:07.089Z,99.21
2022-09-21T02:09:10.909Z,98.58
2022-09-21T02:10:21.335Z,98.59
2022-09-21T02:11:24.378Z,98.79
2022-09-21T02:12:27.260Z,98.31
2022-09-21T02:13:34.976Z,98.26
2022-09-21T02:14:38.811Z,97.44
2022-09-21T02:16:03.580Z,97.18
2022-09-21T02:17:21.465Z,98.16
2022-09-21T02:18:51.586Z,98.19
2022-09-21T02:20:13.404Z,97.52
2022-09-21T02:21:28.122Z,96.51
2022-09-21T02:22:43.681Z,96.47
2022-09-21T02:23:58.367Z,96.68
2022-09-21T02:25:16.616Z,96.18
2022-09-21T02:26:29.962Z,95.76
2022-09-21T02:27:37.137Z,95.22
2022-09-21T02:28:56.168Z,95.49
2022-09-21T02:30:04.816Z,95.57
2022-09-21T02:31:21.359Z,95.84
2022-09-21T02:32:35.672Z,95.54
2022-09-21T02:34:06.275Z,95.98
2022-09-21T02:35:40.898Z,95.50
2022-09-21T02:36:58.584Z,95.20
2022-09-21T02:38:09.342Z,95.66
2022-09-21T02:39:32.277Z,96.46
2022-09-21T02:40:53.846Z,96.06
2022-09-21T02:42:13.291Z,95.74
2022-09-21T02:43:23.572Z,95.58
2022-09-21T02:44:51.227Z,95.13
2022-09-21T02:46:09.200Z,95.44
2022-09-21T02:47:38.191Z,95.65
2022-09-21T02:48:49.922Z,96.23
2022-09-21T02:49:55.084Z,94.98
2022-09-21T02:51:03.807Z,94.56
2022-09-21T02:52:12.641Z,94.49
2022-09-21T02:53:23.047Z,94.22
2022-09-21T02:54:29.715Z,93.53
2022-09-21T02:55:34.156Z,93.36
2022-09-21T02:56:38.465Z,93.42
2022-09-21T02:57:41.820Z,93.61
2022-09-21T02:58:50.159Z,94.52
2022-09-21T02:59:53.333Z,95.29
2022-09-21T03:00:57.445Z,95.46
2022-09-21T03:02:03.562Z,95.18
2022-09-21T03:03:24.994Z,94.83
2022-09-21T03:04:29.508Z,94.67
2022-09-21T03:05:32.331Z,94.68
2022-09-21T03:06:38.991Z,94.32
2022-09-21T03:07:41.893Z,94.08
2022-09-21T03:08:44.888Z,93.95
2022-09-21T03:09:51.535Z,94.43
2022-09-21T03:10:54.520Z,94.20
2022-09-21T03:11:57.322Z,94.46
2022-09-21T03:13:00.389Z,94.22
2022-09-21T03:14:08.927Z,94.09
2022-09-21T03:15:11.758Z,94.41
2022-09-21T03:16:18.527Z,94.65
2022-09-21T03:17:21.489Z,94.66
2022-09-21T03:18:24.256Z,94.07
2022-09-21T03:19:28.698Z,93.95
2022-09-21T03:20:34.913Z,93.84
2022-09-21T03:21:42.297Z,93.35
2022-09-21T03:22:47.256Z,93.10
2022-09-21T03:23:50.054Z,93.05
2022-09-21T03:24:53.592Z,91.93
2022-09-21T03:25:56.521Z,91.51
2022-09-21T03:26:59.796Z,92.02
2022-09-21T03:28:02.850Z,91.63
2022-09-21T03:29:05.967Z,90.74
2022-09-21T03:30:09.311Z,90.66
2022-09-21T03:31:12.581Z,90.81
2022-09-21T03:32:15.956Z,90.93
2022-09-21T03:33:21.839Z,91.70
2022-09-21T03:34:30.462Z,90.56
2022-09-21T03:35:34.645Z,90.49
2022-09-21T03:36:37.335Z,90.78
2022-09-21T03:37:41.409Z,90.62
2022-09-21T03:38:44.652Z,90.84
2022-09-21T03:39:47.547Z,89.84
2022-09-21T03:40:51.162Z,89.54
2022-09-21T03:41:57.559Z,89.60
2022-09-21T03:43:00.524Z,90.08
2022-09-21T03:44:03.371Z,90.42
2022-09-21T03:45:06.798Z,90.53
2022-09-21T03:46:10.329Z,90.63
2022-09-21T03:47:13.246Z,90.19
2022-09-21T03:48:16.931Z,89.67
2022-09-21T03:49:20.359Z,89.36
2022-09-21T03:50:24.139Z,89.22
2022-09-21T03:51:27.299Z,88.92
2022-09-21T03:52:30.284Z,89.05
2022-09-21T03:53:33.113Z,89.49
2022-09-21T03:54:39.552Z,89.89
2022-09-21T03:55:42.860Z,89.10
2022-09-21T03:56:45.662Z,90.07
2022-09-21T03:57:48.846Z,90.69
2022-09-21T03:58:51.626Z,90.56
2022-09-21T03:59:54.571Z,89.87
2022-09-21T04:01:02.698Z,89.25
2022-09-21T04:02:05.641Z,88.59
2022-09-21T04:03:09.465Z,87.95
2022-09-21T04:04:12.303Z,87.49
2022-09-21T04:05:16.685Z,87.93
2022-09-21T04:06:19.721Z,88.41
2022-09-21T04:07:22.529Z,87.84
2022-09-21T04:08:25.418Z,88.79
2022-09-21T04:09:28.269Z,88.44
2022-09-21T04:10:33.756Z,88.48
2022-09-21T04:11:36.615Z,89.31
2022-09-21T04:12:43.655Z,89.52
2022-09-21T04:13:51.338Z,89.23
2022-09-21T04:14:54.051Z,89.40
2022-09-21T04:15:57.309Z,89.59
2022-09-21T04:17:00.197Z,89.45
2022-09-21T04:18:03.088Z,89.47
2022-09-21T04:19:06.086Z,89.30
2022-09-21T04:20:09.937Z,90.25
2022-09-21T04:21:12.661Z,90.15
2022-09-21T04:22:15.868Z,90.19
2022-09-21T04:23:19.484Z,90.56
2022-09-21T04:24:22.979Z,91.84
2022-09-21T04:25:30.438Z,93.76
2022-09-21T04:26:35.275Z,94.51
2022-09-21T04:27:38.241Z,94.89
2022-09-21T04:28:41.065Z,94.21
2022-09-21T04:29:44.617Z,94.43
2022-09-21T04:30:47.484Z,93.65
2022-09-21T04:31:50.373Z,92.92
2022-09-21T04:32:53.539Z,92.70
2022-09-21T04:33:57.836Z,93.90
2022-09-21T04:35:00.635Z,95.02
2022-09-21T04:36:03.582Z,94.74
2022-09-21T04:37:13.438Z,94.83
2022-09-21T04:38:16.403Z,94.15
2022-09-21T04:39:19.402Z,93.15
2022-09-21T04:40:23.552Z,93.17
2022-09-21T04:41:27.364Z,92.85
2022-09-21T04:42:30.459Z,92.17
2022-09-21T04:43:33.683Z,91.73
2022-09-21T04:44:37.315Z,91.75
2022-09-21T04:45:40.803Z,91.56
2022-09-21T04:46:43.588Z,90.76
2022-09-21T04:47:46.540Z,91.17
2022-09-21T04:48:50.150Z,91.38
2022-09-21T04:49:53.784Z,91.86
2022-09-21T04:50:56.801Z,93.34
2022-09-21T04:52:00.245Z,94.01
2022-09-21T04:53:03.191Z,94.83
2022-09-21T04:54:06.876Z,94.80
2022-09-21T04:55:09.833Z,94.28
2022-09-21T04:56:16.144Z,94.58
2022-09-21T04:57:18.990Z,94.66
2022-09-21T04:58:26.550Z,94.26
2022-09-21T04:59:29.278Z,94.52
2022-09-21T05:00:32.293Z,93.88
2022-09-21T05:01:35.271Z,94.04
2022-09-21T05:02:38.247Z,93.81
2022-09-21T05:03:41.116Z,93.69
2022-09-21T05:04:47.509Z,93.12
2022-09-21T05:05:57.551Z,93.64
2022-09-21T05:07:00.431Z,94.87
2022-09-21T05:08:03.344Z,94.26
2022-09-21T05:09:24.587Z,94.05
2022-09-21T05:10:28.324Z,93.33
2022-09-21T05:11:31.143Z,93.30
2022-09-21T05:12:38.534Z,93.65
2022-09-21T05:13:43.296Z,93.40
2022-09-21T05:14:46.145Z,93.57
2022-09-21T05:15:48.887Z,93.10
2022-09-21T05:16:52.098Z,92.89
2022-09-21T05:19:03.784Z,92.03
2022-09-21T05:20:07.519Z,92.18
2022-09-21T05:21:13.150Z,91.70
2022-09-21T05:22:16.405Z,90.96
2022-09-21T05:23:19.397Z,90.69
2022-09-21T05:24:22.389Z,91.07
2022-09-21T05:25:25.157Z,91.17
2022-09-21T05:26:27.911Z,91.29
2022-09-21T05:27:30.867Z,90.63
2022-09-21T05:28:37.819Z,89.83
2022-09-21T05:29:43.507Z,89.17
2022-09-21T05:31:16.249Z,88.68
2022-09-21T05:32:29.649Z,88.38
2022-09-21T05:33:36.012Z,87.96
2022-09-21T05:35:19.905Z,87.90
2022-09-21T05:36:44.053Z,88.38
2022-09-21T05:38:08.862Z,87.93
2022-09-21T05:39:12.899Z,87.52
2022-09-21T05:40:16.193Z,87.64
2022-09-21T05:41:19.256Z,88.02
2022-09-21T05:42:22.369Z,88.04
2022-09-21T05:43:25.649Z,88.58
2022-09-21T05:44:28.629Z,88.76
2022-09-21T05:45:31.892Z,88.95
2022-09-21T05:46:56.206Z,88.82
2022-09-21T05:48:16.937Z,89.22
2022-09-21T05:49:30.188Z,89.84
2022-09-21T05:50:49.475Z,88.90
2022-09-21T05:52:24.011Z,89.04
2022-09-21T05:54:07.338Z,89.09
2022-09-21T05:55:32.230Z,89.08
2022-09-21T05:56:53.335Z,88.93
2022-09-21T05:58:32.734Z,89.73
2022-09-21T05:59:41.913Z,89.32
2022-09-21T06:00:56.275Z,88.87
2022-09-21T06:02:26.718Z,89.27
2022-09-21T06:03:31.385Z,90.94
2022-09-21T06:04:34.486Z,91.10
2022-09-21T06:05:37.359Z,91.84
2022-09-21T06:06:40.390Z,91.14
2022-09-21T06:07:43.376Z,90.89
2022-09-21T06:08:46.278Z,91.16
2022-09-21T06:09:49.128Z,91.18
2022-09-21T06:10:53.022Z,89.74
2022-09-21T06:11:55.911Z,88.91
2022-09-21T06:12:58.870Z,88.51
2022-09-21T06:14:03.288Z,88.80
2022-09-21T06:15:07.836Z,87.98
2022-09-21T06:16:11.070Z,87.75
2022-09-21T06:17:14.082Z,87.13
2022-09-21T06:18:18.096Z,86.59
2022-09-21T06:19:21.691Z,86.38
2022-09-21T06:20:25.362Z,86.57
2022-09-21T06:21:28.347Z,85.96
2022-09-21T06:22:31.229Z,86.34
2022-09-21T06:24:42.076Z,85.74
2022-09-21T06:25:45.016Z,85.78
2022-09-21T06:26:48.024Z,85.27
2022-09-21T06:27:50.947Z,84.86
2022-09-21T06:28:54.006Z,84.09
2022-09-21T06:29:57.401Z,85.23
2022-09-21T06:31:00.732Z,85.35
2022-09-21T06:32:05.246Z,84.98
2022-09-21T06:33:08.704Z,84.88
2022-09-21T06:34:11.525Z,85.11
2022-09-21T06:35:14.473Z,84.42
2022-09-21T06:36:17.946Z,83.61
2022-09-21T06:37:21.060Z,83.39
2022-09-21T06:38:26.051Z,81.29
2022-09-21T06:39:29.012Z,81.67
2022-09-21T06:40:33.911Z,82.48
2022-09-21T06:41:38.648Z,82.78
2022-09-21T06:42:41.608Z,82.04
2022-09-21T06:43:45.970Z,81.23
2022-09-21T06:44:48.771Z,81.03
2022-09-21T06:45:57.663Z,81.13
2022-09-21T06:47:00.575Z,80.99
2022-09-21T06:48:03.519Z,79.71
2022-09-21T06:49:06.585Z,79.65
2022-09-21T06:50:09.616Z,79.35
2022-09-21T06:51:12.484Z,79.11
2022-09-21T06:52:15.529Z,79.12
2022-09-21T06:53:18.705Z,77.53
2022-09-21T06:54:22.363Z,78.64
2022-09-21T06:55:25.291Z,78.87
2022-09-21T06:56:28.597Z,78.78
2022-09-21T06:57:31.814Z,78.44
2022-09-21T06:58:35.803Z,78.15
2022-09-21T06:59:38.558Z,77.79
2022-09-21T07:00:41.482Z,77.78
2022-09-21T07:01:44.697Z,75.22
2022-09-21T07:02:47.504Z,74.97
2022-09-21T07:03:51.594Z,75.44
2022-09-21T07:04:55.126Z,74.86
2022-09-21T07:05:58.138Z,73.65
2022-09-21T07:07:04.125Z,74.05
2022-09-21T07:10:05.118Z,73.99
2022-09-21T07:10:53.954Z,71.25
2022-09-21T07:11:58.429Z,71.44
2022-09-21T07:13:04.524Z,71.54
2022-09-21T07:14:07.620Z,72.38
2022-09-21T07:15:10.987Z,71.46
2022-09-21T07:16:14.678Z,71.86
2022-09-21T07:17:17.570Z,73.17
2022-09-21T07:18:21.597Z,72.37
2022-09-21T07:19:24.788Z,72.56
2022-09-21T07:20:27.653Z,71.51
2022-09-21T07:22:38.586Z,70.25
2022-09-21T07:23:41.847Z,67.81
2022-09-21T07:24:45.366Z,68.04
2022-09-21T07:25:50.815Z,66.86
2022-09-21T07:26:53.654Z,65.30
2022-09-21T07:27:56.679Z,66.30
2022-09-21T07:28:59.643Z,65.30
2022-09-21T07:30:02.582Z,67.06
2022-09-21T07:31:16.798Z,66.10
2022-09-21T07:32:20.248Z,67.56
2022-09-21T07:33:23.006Z,67.38
2022-09-21T07:34:25.901Z,66.78
2022-09-21T07:35:28.749Z,63.66
2022-09-21T07:36:31.726Z,65.20
2022-09-21T07:37:34.426Z,64.54
2022-09-21T07:38:40.224Z,63.28
2022-09-21T07:39:43.417Z,61.37
2022-09-21T07:40:46.429Z,61.33
2022-09-21T07:41:49.462Z,61.71
2022-09-21T07:42:52.450Z,62.50
2022-09-21T07:43:55.614Z,62.71
2022-09-21T07:45:03.887Z,60.75
2022-09-21T07:46:09.538Z,61.37
2022-09-21T07:47:13.658Z,62.16
2022-09-21T07:48:16.862Z,61.97
2022-09-21T07:49:19.866Z,62.42
2022-09-21T07:50:23.843Z,62.12
2022-09-21T07:51:26.761Z,61.31
2022-09-21T07:52:29.577Z,59.37
2022-09-21T07:53:33.996Z,59.82
2022-09-21T07:54:37.324Z,60.03
2022-09-21T07:55:43.739Z,59.73
2022-09-21T07:57:06.592Z,60.48
2022-09-21T07:58:28.244Z,60.14
2022-09-21T07:59:33.211Z,58.46
2022-09-21T08:00:36.732Z,59.93
2022-09-21T08:01:42.176Z,60.42
2022-09-21T08:02:47.685Z,61.29
2022-09-21T08:03:52.456Z,60.44
2022-09-21T08:04:55.617Z,59.88
2022-09-21T08:06:00.036Z,62.34
2022-09-21T08:07:02.854Z,59.88
2022-09-21T08:08:05.761Z,60.84
2022-09-21T08:09:08.934Z,61.71
2022-09-21T08:10:11.962Z,62.44
2022-09-21T08:11:17.103Z,62.44
2022-09-21T08:12:21.058Z,61.87
2022-09-21T08:13:25.648Z,61.17
2022-09-21T08:14:29.479Z,60.13
2022-09-21T08:15:48.808Z,60.07
2022-09-21T08:16:52.589Z,60.36
2022-09-21T08:17:55.400Z,61.03
2022-09-21T08:18:58.569Z,58.54
2022-09-21T08:20:02.094Z,58.85
2022-09-21T08:21:05.247Z,60.48
2022-09-21T08:22:08.618Z,58.11
2022-09-21T08:23:12.114Z,57.21
2022-09-21T08:24:15.264Z,54.51
2022-09-21T08:25:18.171Z,54.24
2022-09-21T08:26:21.583Z,54.92
2022-09-21T08:27:25.867Z,55.82
2022-09-21T08:28:31.636Z,53.54
2022-09-21T08:29:36.078Z,53.17
2022-09-21T08:30:39.065Z,53.39
2022-09-21T08:31:42.018Z,51.47
2022-09-21T08:32:51.380Z,53.05
2022-09-21T08:33:56.341Z,52.60
2022-09-21T08:34:59.246Z,51.65
2022-09-21T08:36:03.006Z,52.13
2022-09-21T08:37:06.300Z,50.19
2022-09-21T08:38:10.289Z,51.58
2022-09-21T08:39:13.367Z,50.50
2022-09-21T08:40:17.129Z,49.49
2022-09-21T08:41:20.460Z,49.83
2022-09-21T08:42:42.519Z,49.68
2022-09-21T08:43:51.943Z,49.11
2022-09-21T08:45:04.066Z,49.07
2022-09-21T08:46:15.713Z,47.47
2022-09-21T08:47:34.935Z,49.56
2022-09-21T08:48:46.455Z,48.98
2022-09-21T08:49:56.295Z,48.80
2022-09-21T08:51:06.538Z,47.78
2022-09-21T08:52:16.670Z,47.69
2022-09-21T08:53:27.300Z,48.22
2022-09-21T08:54:52.296Z,49.21
2022-09-21T08:55:58.432Z,49.02
2022-09-21T08:57:05.305Z,48.69
2022-09-21T08:58:28.627Z,48.32
2022-09-21T08:59:31.791Z,50.25
2022-09-21T09:00:40.364Z,50.06
2022-09-21T09:01:46.291Z,50.51
2022-09-21T09:03:16.606Z,50.91
2022-09-21T09:04:50.148Z,50.28
2022-09-21T09:06:00.292Z,50.88
2022-09-21T09:07:15.573Z,52.17
2022-09-21T09:08:42.926Z,49.68
2022-09-21T09:10:13.014Z,49.02
2022-09-21T09:11:27.941Z,48.20
2022-09-21T09:13:13.470Z,48.87
2022-09-21T09:14:35.257Z,48.16
2022-09-21T09:15:46.442Z,47.92
2022-09-21T09:16:57.480Z,48.69
2022-09-21T09:18:20.841Z,50.18
2022-09-21T09:19:34.919Z,50.91
2022-09-21T09:20:49.696Z,50.50
2022-09-21T09:21:52.743Z,52.31
2022-09-21T09:23:24.711Z,51.73
2022-09-21T09:24:56.363Z,50.56
2022-09-21T09:26:18.476Z,50.61
2022-09-21T09:27:28.606Z,46.95
2022-09-21T09:28:41.946Z,47.97
2022-09-21T09:30:02.648Z,45.59
2022-09-21T09:31:23.730Z,45.94
2022-09-21T09:32:59.219Z,45.65
2022-09-21T09:34:21.119Z,44.58
2022-09-21T09:35:33.730Z,45.46
2022-09-21T09:36:57.945Z,44.58
2022-09-21T09:38:48.439Z,46.34
2022-09-21T09:39:57.974Z,43.73
2022-09-21T09:41:12.680Z,44.16
2022-09-21T09:42:22.272Z,45.30
2022-09-21T09:43:49.214Z,46.02
2022-09-21T09:45:10.732Z,45.59
2022-09-21T09:46:33.608Z,46.39
2022-09-21T09:47:48.384Z,47.13
2022-09-21T09:49:06.520Z,46.00
2022-09-21T09:50:20.766Z,43.76
2022-09-21T09:51:24.091Z,46.28
2022-09-21T09:52:27.992Z,45.48
2022-09-21T09:53:31.913Z,45.50
2022-09-21T09:54:36.374Z,44.70
2022-09-21T09:55:49.745Z,46.33
2022-09-21T09:56:53.343Z,46.50
2022-09-21T09:57:56.827Z,47.18
2022-09-21T09:59:07.291Z,45.90
2022-09-21T10:00:15.118Z,45.65
2022-09-21T10:01:43.222Z,45.54
2022-09-21T10:02:55.461Z,43.42
2022-09-21T10:04:13.073Z,42.82
2022-09-21T10:05:38.559Z,43.89
2022-09-21T10:06:46.456Z,42.34
2022-09-21T10:07:52.424Z,43.12
2022-09-21T10:08:55.217Z,43.79
2022-09-21T10:09:58.210Z,44.23
2022-09-21T10:11:01.102Z,44.96
2022-09-21T10:12:19.308Z,44.36
2022-09-21T10:13:22.247Z,46.01
2022-09-21T10:14:33.134Z,45.47
2022-09-21T10:15:50.279Z,46.86
2022-09-21T10:16:56.525Z,46.63
2022-09-21T10:18:12.149Z,47.79
2022-09-21T10:19:19.301Z,48.13
2022-09-21T10:20:22.336Z,47.50
2022-09-21T10:21:27.079Z,46.99
2022-09-21T10:22:32.913Z,47.93
2022-09-21T10:23:37.513Z,48.05
2022-09-21T10:24:49.192Z,47.59
2022-09-21T10:26:04.315Z,48.09
2022-09-21T10:27:12.622Z,49.88
2022-09-21T10:28:23.986Z,49.34
2022-09-21T10:29:27.403Z,47.31
2022-09-21T10:30:31.272Z,46.72
2022-09-21T10:31:34.766Z,46.46
2022-09-21T10:32:57.087Z,46.67
2022-09-21T10:34:16.165Z,46.53
2022-09-21T10:35:19.601Z,46.87
2022-09-21T10:36:32.716Z,47.62
2022-09-21T10:37:42.373Z,50.09
2022-09-21T10:38:45.881Z,48.14
2022-09-21T10:39:48.853Z,46.94
2022-09-21T10:40:51.966Z,47.30
2022-09-21T10:41:59.671Z,46.56
2022-09-21T10:43:02.425Z,46.20
2022-09-21T10:44:16.640Z,44.05
2022-09-21T10:45:23.215Z,44.23
2022-09-21T10:46:36.224Z,44.69
2022-09-21T10:48:24.459Z,45.91
2022-09-21T10:49:29.200Z,44.86
2022-09-21T10:50:36.870Z,43.84
2022-09-21T10:51:39.980Z,43.76
2022-09-21T10:52:47.171Z,44.43
2022-09-21T10:53:53.818Z,42.90
2022-09-21T10:54:57.934Z,44.38
2022-09-21T10:56:17.787Z,41.72
2022-09-21T10:57:24.068Z,41.28
2022-09-21T10:58:29.895Z,43.76
2022-09-21T10:59:35.906Z,41.38
2022-09-21T11:00:45.270Z,42.41
2022-09-21T11:01:53.424Z,43.86
2022-09-21T11:03:01.336Z,44.05
2022-09-21T11:04:10.442Z,43.87
2022-09-21T11:05:23.762Z,43.53
2022-09-21T11:06:45.180Z,43.54
2022-09-21T11:08:11.129Z,41.51
2022-09-21T11:09:38.622Z,39.07
2022-09-21T11:11:21.673Z,40.43
2022-09-21T11:12:49.485Z,40.97
2022-09-21T11:14:01.543Z,41.53
2022-09-21T11:15:30.479Z,43.62
2022-09-21T11:17:12.792Z,43.21
2022-09-21T11:18:25.055Z,45.27
2022-09-21T11:19:43.242Z,46.73
2022-09-21T11:21:34.632Z,45.94
2022-09-21T11:22:57.412Z,43.88
2022-09-21T11:24:27.638Z,43.58
2022-09-21T11:25:50.859Z,42.75
2022-09-21T11:27:04.297Z,40.87
2022-09-21T11:28:14.102Z,40.89
2022-09-21T11:29:49.291Z,40.07
2022-09-21T11:30:58.196Z,39.39
2022-09-21T11:32:12.945Z,40.53
2022-09-21T11:33:31.769Z,39.74
2022-09-21T11:34:57.928Z,39.19
2022-09-21T11:36:30.150Z,38.31
2022-09-21T11:37:54.722Z,39.51
2022-09-21T11:39:15.537Z,42.98
2022-09-21T11:40:38.357Z,42.60
2022-09-21T11:42:08.722Z,42.71
2022-09-21T11:43:38.461Z,40.76
2022-09-21T11:44:59.852Z,40.58
2022-09-21T11:46:25.134Z,41.55
2022-09-21T11:48:06.134Z,39.31
2022-09-21T11:49:43.404Z,40.18
2022-09-21T11:51:08.071Z,43.30
2022-09-21T11:52:23.080Z,42.77
2022-09-21T11:53:39.343Z,43.52
2022-09-21T11:55:05.816Z,43.08
2022-09-21T11:56:31.759Z,45.27
2022-09-21T11:57:45.960Z,42.34
2022-09-21T11:59:19.031Z,42.81
2022-09-21T12:00:25.291Z,43.48
2022-09-21T12:01:37.021Z,42.40
2022-09-21T12:03:09.672Z,41.77
2022-09-21T12:04:31.164Z,40.46
2022-09-21T12:05:42.784Z,41.55
2022-09-21T12:06:52.268Z,41.39
2022-09-21T12:08:32.873Z,40.11
2022-09-21T12:10:10.411Z,39.22
2022-09-21T12:11:40.803Z,39.42
2022-09-21T12:12:49.847Z,39.41
2022-09-21T12:14:01.643Z,38.32
2022-09-21T12:15:20.756Z,38.64
2022-09-21T12:16:48.697Z,38.98
2022-09-21T12:17:58.876Z,38.54
2022-09-21T12:19:20.371Z,38.91
2022-09-21T12:20:35.600Z,40.09
2022-09-21T12:21:44.415Z,41.86
2022-09-21T12:22:50.682Z,42.77
2022-09-21T12:23:57.596Z,44.21
2022-09-21T12:25:07.615Z,44.06
2022-09-21T12:26:15.613Z,43.89
2022-09-21T12:27:43.025Z,42.93
2022-09-21T12:28:54.050Z,39.96
2022-09-21T12:30:03.410Z,39.40
2022-09-21T12:31:14.405Z,39.37
2022-09-21T12:32:53.592Z,39.36
2022-09-21T12:34:03.095Z,38.37
2022-09-21T12:35:14.057Z,39.40
2022-09-21T12:36:29.611Z,41.30
2022-09-21T12:37:41.342Z,41.66
2022-09-21T12:39:01.674Z,43.11
2022-09-21T12:40:14.151Z,43.97
2022-09-21T12:41:39.866Z,45.84
2022-09-21T12:42:47.307Z,46.37
2022-09-21T12:44:17.335Z,48.20
2022-09-21T12:45:22.660Z,49.17
2022-09-21T12:46:44.517Z,50.67
2022-09-21T12:48:26.354Z,51.39
2022-09-21T12:49:32.648Z,51.79
2022-09-21T12:50:46.778Z,51.87
2022-09-21T12:51:57.406Z,51.97
2022-09-21T12:53:00.682Z,53.58
2022-09-21T12:54:15.920Z,51.83
2022-09-21T12:55:31.930Z,51.22
2022-09-21T12:57:17.507Z,50.68
2022-09-21T12:58:53.774Z,51.67
2022-09-21T13:00:04.433Z,49.90
2022-09-21T13:01:13.682Z,50.47
2022-09-21T13:02:20.316Z,49.62
2022-09-21T13:04:10.378Z,47.66
2022-09-21T13:06:01.941Z,47.39
2022-09-21T13:07:33.189Z,48.76
2022-09-21T13:08:40.902Z,46.21
2022-09-21T13:09:46.502Z,45.21
2022-09-21T13:11:01.141Z,45.87
2022-09-21T13:12:16.121Z,47.09
2022-09-21T13:13:44.390Z,44.64
2022-09-21T13:14:51.794Z,43.87
2022-09-21T13:15:55.628Z,43.78
2022-09-21T13:17:03.451Z,44.73
2022-09-21T13:18:22.529Z,44.69
2022-09-21T13:19:27.413Z,43.20
2022-09-21T13:20:40.139Z,42.46
2022-09-21T13:21:44.429Z,42.62
2022-09-21T13:22:51.116Z,43.08
2022-09-21T13:24:04.640Z,43.46
2022-09-21T13:25:28.262Z,43.03
2022-09-21T13:26:51.498Z,41.97
2022-09-21T13:28:10.324Z,41.76
2022-09-21T13:29:28.101Z,42.35
2022-09-21T13:30:35.398Z,41.72
2022-09-21T13:31:41.785Z,40.71
2022-09-21T13:32:51.971Z,41.51
2022-09-21T13:34:06.907Z,41.09
2022-09-21T13:35:48.388Z,41.99
2022-09-21T13:37:16.909Z,42.14
2022-09-21T13:38:23.843Z,42.57
2022-09-21T13:39:27.489Z,41.09
2022-09-21T13:40:35.480Z,40.07
2022-09-21T13:41:59.372Z,40.55
2022-09-21T13:43:17.676Z,39.38
2022-09-21T13:44:41.917Z,40.01
2022-09-21T13:45:52.185Z,41.14
2022-09-21T13:46:55.405Z,42.37
2022-09-21T13:48:00.302Z,40.70
2022-09-21T13:49:15.674Z,40.61
2022-09-21T13:50:42.784Z,41.77
2022-09-21T13:51:54.312Z,40.07
2022-09-21T13:53:04.016Z,40.54
2022-09-21T13:54:06.833Z,40.71
2022-09-21T13:55:45.767Z,41.04
2022-09-21T13:57:00.290Z,41.70
2022-09-21T13:58:07.582Z,41.89
2022-09-21T13:59:24.233Z,42.70
2022-09-21T14:00:37.741Z,42.06
2022-09-21T14:01:48.184Z,42.03
2022-09-21T14:02:51.236Z,43.27
2022-09-21T14:04:04.262Z,42.77
2022-09-21T14:05:44.328Z,42.61
2022-09-21T14:06:50.102Z,42.46
2022-09-21T14:08:18.708Z,43.21
2022-09-21T14:09:29.420Z,44.40
2022-09-21T14:10:33.670Z,46.56
2022-09-21T14:11:40.641Z,46.83
2022-09-21T14:12:45.804Z,46.65
2022-09-21T14:14:03.227Z,47.19
2022-09-21T14:15:19.608Z,47.67
2022-09-21T14:16:28.129Z,47.26
2022-09-21T14:17:41.613Z,47.22
2022-09-21T14:18:46.698Z,46.52
2022-09-21T14:20:00.143Z,45.97
2022-09-21T14:21:17.438Z,45.86
2022-09-21T14:22:20.653Z,46.29
2022-09-21T14:23:23.213Z,45.08
2022-09-21T14:24:38.546Z,44.88
2022-09-21T14:25:53.278Z,44.55
2022-09-21T14:27:03.375Z,44.09
2022-09-21T14:28:13.467Z,43.26
2022-09-21T14:29:44.827Z,43.97
2022-09-21T14:30:56.436Z,44.14
2022-09-21T14:32:03.160Z,44.05
2022-09-21T14:33:31.774Z,42.68
2022-09-21T14:34:37.667Z,42.46
2022-09-21T14:35:47.600Z,43.35
2022-09-21T14:36:54.470Z,43.90
2022-09-21T14:38:11.057Z,42.67
2022-09-21T14:39:29.500Z,43.61
2022-09-21T14:40:38.871Z,43.43
2022-09-21T14:41:47.393Z,43.16
2022-09-21T14:42:50.671Z,43.50
2022-09-21T14:43:56.870Z,44.22
2022-09-21T14:45:02.436Z,43.38
2022-09-21T14:46:21.471Z,43.74
2022-09-21T14:47:53.412Z,43.07
2022-09-21T14:49:26.868Z,42.47
2022-09-21T14:50:57.840Z,43.10
2022-09-21T14:52:18.234Z,42.62
2022-09-21T14:53:32.726Z,43.34
2022-09-21T14:54:47.979Z,44.09
2022-09-21T14:56:26.128Z,42.47
2022-09-21T14:57:37.743Z,43.69
2022-09-21T14:58:46.995Z,45.05
2022-09-21T14:59:59.151Z,45.57
2022-09-21T15:01:35.519Z,45.74
2022-09-21T15:02:38.156Z,44.12
2022-09-21T15:04:02.880Z,44.77
2022-09-21T15:05:08.372Z,45.25
2022-09-21T15:07:03.915Z,45.27
2022-09-21T15:08:48.894Z,45.53
2022-09-21T15:10:32.185Z,45.06
2022-09-21T15:11:44.289Z,46.92
2022-09-21T15:12:58.576Z,46.64
2022-09-21T15:14:32.889Z,45.56
2022-09-21T15:15:53.317Z,46.61